Terminal Aerodrome Forecast
Issued by NWS Albuquerque, NM

Home | Current Version | Previous Version | Text Only | Print | Product List | Glossary On
Versions: 1 2 3 4 5 6 7 8 9 10 11 12
000
FTUS45 KABQ 061733
TAFABQ
TAF
KABQ 061733Z 0618/0718 15004KT P6SM BKN100
     FM062030 22016G26KT P6SM BKN100
     FM070100 21011KT P6SM SCT200
     FM070600 17009KT P6SM SCT200=

USA.gov is the U.S. government's official web portal to all federal, state and local government web resources and services.